Time;durP1;ratioP1;P1;durP2;ratioP2;P2;SDS_P1;SDS_P2;PMS_P1;PMS_P2;Temp;Humidity;BMP_temperature;BMP_pressure;BME280_temperature;BME280_humidity;BME280_pressure;Samples;Min_cycle;Max_cycle;Signal;HPM_P1;HPM_P2
2023/02/06 00:01:48;;;;;;;13.63;3.90;;;;;;;-0.12;67.59;102987.25;5026455;28;20440;-52
2023/02/06 00:04:15;;;;;;;12.10;4.97;;;;;;;-0.12;67.33;102989.81;5025155;28;20046;-50
2023/02/06 00:06:42;;;;;;;14.07;5.13;;;;;;;-0.10;67.28;102995.91;5023358;28;20087;-52
2023/02/06 00:09:09;;;;;;;14.60;4.63;;;;;;;-0.09;67.32;102992.63;5024943;28;20045;-51
2023/02/06 00:11:36;;;;;;;13.40;4.60;;;;;;;-0.07;67.60;102991.09;5025003;28;20057;-50
2023/02/06 00:14:02;;;;;;;14.70;5.03;;;;;;;-0.06;67.67;102977.63;5027774;28;20186;-52
2023/02/06 00:16:32;;;;;;;13.50;4.63;;;;;;;-0.06;67.60;102977.63;5026993;28;20107;-48
2023/02/06 00:18:59;;;;;;;14.45;5.07;;;;;;;-0.06;67.53;102981.81;5016400;28;20154;-49
2023/02/06 00:21:26;;;;;;;9.70;5.60;;;;;;;-0.06;67.96;102974.16;5022353;28;20136;-52
2023/02/06 00:23:56;;;;;;;11.05;6.13;;;;;;;-0.09;67.70;102977.34;5023485;28;20111;-51
2023/02/06 00:26:23;;;;;;;12.73;5.38;;;;;;;-0.09;68.09;102981.53;5025107;28;20203;-48
2023/02/06 00:28:50;;;;;;;14.18;5.00;;;;;;;-0.18;68.40;102982.50;5025014;28;20134;-51
2023/02/06 00:31:17;;;;;;;11.65;5.57;;;;;;;-0.27;67.61;102969.84;5027347;28;20132;-49
2023/02/06 00:33:44;;;;;;;12.02;4.50;;;;;;;-0.29;67.54;102973.91;5027943;28;20446;-50
2023/02/06 00:36:10;;;;;;;17.30;5.57;;;;;;;-0.31;67.82;102970.31;5025765;28;20121;-49
2023/02/06 00:38:37;;;;;;;13.75;5.97;;;;;;;-0.33;67.57;102966.75;5025893;28;20119;-49
2023/02/06 00:41:04;;;;;;;17.05;5.90;;;;;;;-0.32;68.09;102975.28;5031684;28;20049;-51
2023/02/06 00:43:31;;;;;;;11.88;5.43;;;;;;;-0.32;67.59;102976.19;5025852;28;20060;-53
2023/02/06 00:45:57;;;;;;;14.45;5.38;;;;;;;-0.31;67.34;102972.88;5025229;28;20049;-51
2023/02/06 00:48:24;;;;;;;10.13;5.70;;;;;;;-0.30;67.78;102971.22;5027057;28;20103;-51
2023/02/06 00:50:52;;;;;;;11.48;5.45;;;;;;;-0.34;67.68;102970.03;5031797;28;20045;-53
2023/02/06 00:53:19;;;;;;;15.43;5.32;;;;;;;-0.33;67.51;102974.41;5026112;28;20084;-50
2023/02/06 00:55:46;;;;;;;12.95;5.22;;;;;;;-0.32;67.50;102968.53;5024515;28;20061;-50
2023/02/06 00:58:12;;;;;;;15.95;5.45;;;;;;;-0.29;67.75;102978.09;5024898;28;20060;-51
2023/02/06 01:00:39;;;;;;;9.90;5.63;;;;;;;-0.28;67.72;102972.25;5025003;28;20567;-52
2023/02/06 01:03:05;;;;;;;10.85;4.68;;;;;;;-0.24;67.30;102970.88;5025135;28;20103;-51
2023/02/06 01:05:32;;;;;;;13.20;5.05;;;;;;;-0.21;67.74;102971.16;5022375;28;20099;-52
2023/02/06 01:07:59;;;;;;;14.20;5.20;;;;;;;-0.19;67.63;102979.81;5025358;28;20053;-50
2023/02/06 01:10:29;;;;;;;16.00;5.25;;;;;;;-0.20;67.90;102967.84;5027481;28;20048;-50
2023/02/06 01:12:56;;;;;;;10.90;5.50;;;;;;;-0.20;67.33;102962.75;5022173;28;20085;-48
2023/02/06 01:15:22;;;;;;;14.88;5.93;;;;;;;-0.19;67.63;102967.97;5024745;28;20096;-49
2023/02/06 01:17:49;;;;;;;14.55;5.18;;;;;;;-0.19;67.84;102959.44;5024243;28;20045;-49
2023/02/06 01:20:15;;;;;;;12.88;4.78;;;;;;;-0.20;67.56;102962.75;5024464;28;20057;-47
2023/02/06 01:22:42;;;;;;;9.18;4.90;;;;;;;-0.19;67.90;102959.44;5022946;28;20076;-52
2023/02/06 01:25:09;;;;;;;10.45;4.47;;;;;;;-0.21;67.93;102966.06;5025260;28;20146;-52
2023/02/06 01:27:37;;;;;;;13.82;5.18;;;;;;;-0.22;68.11;102964.25;5024390;28;20072;-52
2023/02/06 01:30:05;;;;;;;8.52;4.18;;;;;;;-0.24;68.52;102948.81;5020306;28;20056;-50
2023/02/06 01:32:35;;;;;;;7.97;4.53;;;;;;;-0.26;67.93;102948.69;5022792;28;20045;-50
2023/02/06 01:35:03;;;;;;;11.23;5.25;;;;;;;-0.26;67.84;102947.81;5029190;28;20049;-48
2023/02/06 01:37:30;;;;;;;7.45;3.88;;;;;;;-0.29;68.18;102958.63;5017128;28;20045;-50
2023/02/06 01:39:56;;;;;;;12.75;4.38;;;;;;;-0.29;68.34;102951.00;5023634;28;20103;-50
2023/02/06 01:42:23;;;;;;;11.00;3.70;;;;;;;-0.29;68.21;102947.53;5016709;28;20091;-49
2023/02/06 01:48:08;;;;;;;7.70;2.58;;;;;;;-0.31;68.19;102934.66;5057678;27;20391;-51
2023/02/06 01:50:37;;;;;;;10.52;2.40;;;;;;;-0.29;68.78;102935.72;5015540;28;20084;-52
2023/02/06 01:53:05;;;;;;;9.10;2.33;;;;;;;-0.29;68.69;102932.25;5019171;28;20151;-50
2023/02/06 01:55:34;;;;;;;6.65;1.98;;;;;;;-0.31;68.72;102934.66;5019036;28;20501;-48
2023/02/06 01:58:03;;;;;;;12.95;1.95;;;;;;;-0.30;68.87;102930.47;5018829;28;20498;-50
2023/02/06 02:00:30;;;;;;;9.82;2.05;;;;;;;-0.30;68.81;102921.16;5014591;28;20123;-50
2023/02/06 02:02:56;;;;;;;10.55;1.80;;;;;;;-0.29;69.13;102917.88;5009794;28;20058;-50
2023/02/06 02:05:23;;;;;;;7.43;1.83;;;;;;;-0.27;69.18;102913.78;5017084;28;20050;-50
2023/02/06 02:07:59;;;;;;;4.18;1.70;;;;;;;-0.29;69.59;102902.59;5017202;28;20129;-50
2023/02/06 02:10:28;;;;;;;3.78;1.30;;;;;;;-0.26;69.04;102907.06;5017624;28;20107;-50
2023/02/06 02:12:55;;;;;;;7.65;1.40;;;;;;;-0.26;69.28;102913.03;5019098;28;20057;-48
2023/02/06 02:15:38;;;;;;;5.60;1.33;;;;;;;-0.22;69.51;102913.31;5020390;28;20139;-49
2023/02/06 02:26:44;;;;;;;13.75;4.03;;;;;;;0.21;69.74;102901.72;5102043;27;20725;-48
2023/02/06 02:39:51;;;;;;;8.77;2.72;;;;;;;-0.09;69.93;102885.59;5017588;28;20415;-48
2023/02/06 02:42:26;;;;;;;8.80;2.63;;;;;;;-0.10;70.07;102899.09;5006233;28;20133;-51
2023/02/06 02:47:44;;;;;;;15.82;3.97;;;;;;;-0.12;70.00;102900.63;5036003;28;20920;-47
2023/02/06 02:52:48;;;;;;;3.17;1.42;;;;;;;-0.16;70.27;102901.13;5118125;27;21139;-48
2023/02/06 02:55:21;;;;;;;9.98;1.75;;;;;;;-0.14;70.06;102899.56;5069217;27;20087;-52
2023/02/06 02:57:52;;;;;;;7.03;1.42;;;;;;;-0.17;69.95;102892.56;5072044;28;20117;-50
2023/02/06 03:00:21;;;;;;;7.40;1.98;;;;;;;-0.19;70.02;102893.19;5089454;28;20051;-49
2023/02/06 03:02:51;;;;;;;7.82;2.15;;;;;;;-0.21;69.77;102889.63;5084361;28;20055;-52
2023/02/06 03:05:21;;;;;;;3.45;1.20;;;;;;;-0.21;69.90;102889.63;5093332;28;20071;-49
2023/02/06 03:13:09;;;;;;;10.77;2.05;;;;;;;-0.25;70.29;102893.56;5031769;27;20409;-51
2023/02/06 03:18:22;;;;;;;9.52;1.27;;;;;;;-0.26;69.93;102891.78;5075616;27;20416;-49
2023/02/06 03:20:49;;;;;;;5.50;1.42;;;;;;;-0.28;70.30;102896.72;5036639;28;20049;-48
2023/02/06 03:23:22;;;;;;;8.70;1.80;;;;;;;-0.32;70.19;102894.69;5035966;28;20060;-50
2023/02/06 03:25:54;;;;;;;5.38;1.73;;;;;;;-0.32;70.17;102898.88;5033378;28;20111;-49
2023/02/06 03:28:27;;;;;;;9.60;1.77;;;;;;;-0.36;69.94;102896.81;5033474;28;20052;-50
2023/02/06 03:30:56;;;;;;;6.03;1.70;;;;;;;-0.39;70.18;102894.88;5049865;28;20056;-50
2023/02/06 03:33:29;;;;;;;15.75;3.55;;;;;;;-0.40;69.55;102903.31;5055602;28;20040;-50
2023/02/06 03:35:56;;;;;;;14.80;4.90;;;;;;;-0.39;70.24;102889.78;5057419;28;20056;-49
2023/02/06 03:38:24;;;;;;;14.60;4.15;;;;;;;-0.39;70.39;102889.78;5056952;28;20121;-51
2023/02/06 03:40:53;;;;;;;14.27;3.25;;;;;;;-0.35;70.44;102888.41;5049508;28;20482;-51
2023/02/06 03:43:23;;;;;;;6.25;2.13;;;;;;;-0.32;70.98;102891.22;5054526;28;20040;-50
2023/02/06 03:45:58;;;;;;;6.32;2.20;;;;;;;-0.31;70.77;102883.72;5054014;28;20586;-48
2023/02/06 03:51:18;;;;;;;9.82;2.58;;;;;;;-0.27;70.29;102884.91;5035470;28;20395;-48
2023/02/06 03:53:48;;;;;;;6.20;1.92;;;;;;;-0.27;70.19;102885.78;4993353;28;20525;-51
2023/02/06 03:56:25;;;;;;;8.70;2.47;;;;;;;-0.28;70.58;102889.09;4982854;28;20054;-51
2023/02/06 03:58:52;;;;;;;8.73;1.85;;;;;;;-0.27;70.73;102885.78;4982922;28;20051;-49
2023/02/06 04:01:20;;;;;;;16.30;2.10;;;;;;;-0.26;70.58;102882.47;4981258;28;20128;-52
2023/02/06 04:03:46;;;;;;;6.60;2.30;;;;;;;-0.22;70.39;102877.63;4987745;28;20056;-50
2023/02/06 04:06:13;;;;;;;6.65;2.00;;;;;;;-0.20;70.18;102881.22;4986326;28;20466;-51
2023/02/06 04:08:40;;;;;;;7.80;1.75;;;;;;;-0.19;70.29;102873.72;4992916;28;20073;-50
2023/02/06 04:11:06;;;;;;;10.30;1.33;;;;;;;-0.16;70.46;102875.63;4988202;28;20053;-49
2023/02/06 04:13:33;;;;;;;11.00;1.98;;;;;;;-0.14;70.18;102871.56;4984146;28;20138;-48
2023/02/06 04:16:00;;;;;;;8.68;4.15;;;;;;;-0.13;70.73;102873.38;4988879;28;20120;-52
2023/02/06 04:18:27;;;;;;;8.52;1.38;;;;;;;-0.14;70.53;102869.00;4985142;28;20078;-50
2023/02/06 04:20:54;;;;;;;8.32;2.75;;;;;;;-0.13;70.26;102873.38;4989978;28;20069;-49
2023/02/06 04:23:20;;;;;;;4.85;1.33;;;;;;;-0.14;70.58;102875.00;4991099;28;20081;-53
2023/02/06 04:25:47;;;;;;;6.80;1.45;;;;;;;-0.12;70.54;102875.13;4989749;28;20079;-53
2023/02/06 04:28:14;;;;;;;6.43;2.70;;;;;;;-0.13;70.52;102873.38;4986569;28;20102;-50
2023/02/06 04:30:40;;;;;;;11.30;1.83;;;;;;;-0.14;70.60;102869.91;4988681;28;20050;-51
2023/02/06 04:33:07;;;;;;;14.80;2.00;;;;;;;-0.17;69.97;102864.53;4993441;28;20058;-50
2023/02/06 04:35:34;;;;;;;4.68;1.23;;;;;;;-0.18;70.36;102869.50;4979805;28;20074;-51
2023/02/06 04:38:01;;;;;;;10.40;1.95;;;;;;;-0.22;70.80;102877.63;4994939;28;20101;-52
2023/02/06 04:40:27;;;;;;;8.73;1.63;;;;;;;-0.29;70.04;102869.47;4979979;28;20089;-50
2023/02/06 04:42:54;;;;;;;9.30;2.53;;;;;;;-0.33;70.53;102875.06;4983092;28;20290;-52
2023/02/06 04:45:20;;;;;;;11.40;2.33;;;;;;;-0.36;70.28;102872.25;4982256;28;20074;-52
2023/02/06 04:47:49;;;;;;;10.77;2.78;;;;;;;-0.40;70.33;102867.66;4987429;28;20073;-50
2023/02/06 04:50:16;;;;;;;13.50;3.00;;;;;;;-0.41;70.33;102879.47;4980264;28;20046;-52
2023/02/06 04:52:43;;;;;;;7.32;4.20;;;;;;;-0.43;70.47;102878.47;4979088;28;20055;-50
2023/02/06 04:55:10;;;;;;;18.92;4.60;;;;;;;-0.45;70.35;102873.97;4987558;28;20047;-52
2023/02/06 04:57:36;;;;;;;8.52;3.63;;;;;;;-0.48;70.00;102861.00;4974321;28;20113;-50
2023/02/06 05:00:05;;;;;;;9.02;3.15;;;;;;;-0.51;70.27;102864.13;4978782;28;20486;-52
2023/02/06 05:02:36;;;;;;;4.63;2.55;;;;;;;-0.54;70.42;102852.03;4963038;28;20105;-50
2023/02/06 05:05:03;;;;;;;12.88;3.47;;;;;;;-0.56;70.35;102851.00;4969766;28;20069;-50
2023/02/06 05:07:29;;;;;;;6.88;2.38;;;;;;;-0.60;70.71;102846.41;4974864;28;20101;-51
2023/02/06 05:09:56;;;;;;;8.40;3.60;;;;;;;-0.64;70.32;102849.44;4973405;28;20101;-50
2023/02/06 05:12:23;;;;;;;7.90;3.65;;;;;;;-0.69;70.23;102843.94;4972111;28;20054;-49
2023/02/06 05:14:50;;;;;;;13.90;2.58;;;;;;;-0.71;70.46;102839.47;4979783;28;20042;-51
2023/02/06 05:17:16;;;;;;;10.23;2.50;;;;;;;-0.76;70.26;102833.06;4977364;28;20603;-51
2023/02/06 05:19:43;;;;;;;7.07;2.50;;;;;;;-0.81;70.25;102837.78;4966220;28;20169;-50
2023/02/06 05:22:09;;;;;;;9.20;3.67;;;;;;;-0.85;70.28;102841.66;4974047;28;20094;-50
2023/02/06 05:24:36;;;;;;;9.32;2.53;;;;;;;-0.89;70.12;102826.88;4978125;28;20089;-52
2023/02/06 05:27:03;;;;;;;9.00;2.70;;;;;;;-0.89;70.67;102829.44;4971032;28;20106;-50
2023/02/06 05:29:30;;;;;;;8.30;2.72;;;;;;;-0.90;70.40;102832.75;4970057;28;20086;-53
2023/02/06 05:31:57;;;;;;;5.47;3.40;;;;;;;-0.89;70.48;102826.88;4976325;28;20059;-51
2023/02/06 05:34:23;;;;;;;14.35;4.55;;;;;;;-0.87;70.47;102821.94;4967844;28;20043;-51
2023/02/06 05:36:50;;;;;;;10.40;3.33;;;;;;;-0.87;71.09;102820.31;4974245;28;20077;-49
2023/02/06 05:39:17;;;;;;;15.02;5.07;;;;;;;-0.86;70.72;102818.63;4972248;28;20647;-51
2023/02/06 05:41:43;;;;;;;18.95;4.25;;;;;;;-0.87;70.69;102806.66;4975550;28;20544;-54
2023/02/06 05:44:10;;;;;;;26.00;8.40;;;;;;;-0.90;70.66;102804.75;4969829;28;20184;-49
2023/02/06 05:46:37;;;;;;;26.67;8.23;;;;;;;-0.92;70.84;102802.06;4962668;28;20142;-50
2023/02/06 05:49:03;;;;;;;37.33;12.15;;;;;;;-0.93;70.79;102796.84;4965914;28;20224;-50
2023/02/06 05:51:30;;;;;;;21.77;6.68;;;;;;;-0.94;70.53;102784.88;4967896;28;20054;-51
2023/02/06 05:53:57;;;;;;;27.60;8.85;;;;;;;-0.95;70.83;102788.19;4975792;28;20074;-53
2023/02/06 05:56:23;;;;;;;31.52;10.18;;;;;;;-0.95;71.21;102788.19;4973157;28;20050;-48
2023/02/06 05:58:53;;;;;;;23.60;7.57;;;;;;;-0.95;71.24;102790.75;4974375;28;20067;-50
2023/02/06 06:01:19;;;;;;;14.63;4.32;;;;;;;-0.95;71.01;102793.28;4966896;28;20051;-52
2023/02/06 06:03:46;;;;;;;8.82;2.65;;;;;;;-0.93;71.26;102789.22;4968747;28;20047;-50
2023/02/06 06:06:13;;;;;;;6.97;2.35;;;;;;;-0.92;70.94;102788.44;4971178;28;20582;-48
2023/02/06 06:08:39;;;;;;;8.90;3.28;;;;;;;-0.92;71.23;102789.34;4977355;28;20047;-50
2023/02/06 06:11:06;;;;;;;5.88;1.85;;;;;;;-0.89;71.28;102798.00;4965623;28;20046;-48
2023/02/06 06:13:33;;;;;;;12.23;1.98;;;;;;;-0.86;71.83;102799.19;4975666;28;20113;-54
2023/02/06 06:16:00;;;;;;;3.60;1.45;;;;;;;-0.84;71.57;102794.22;4968120;28;20054;-49
2023/02/06 06:18:26;;;;;;;9.52;1.75;;;;;;;-0.82;71.68;102806.31;4975802;28;20384;-50
2023/02/06 06:20:53;;;;;;;13.30;1.67;;;;;;;-0.79;71.72;102793.88;4965742;28;20077;-52
2023/02/06 06:23:19;;;;;;;10.93;1.83;;;;;;;-0.78;71.65;102782.94;4974203;28;20117;-49
2023/02/06 06:25:47;;;;;;;7.03;1.80;;;;;;;-0.78;72.04;102782.94;4972875;28;20054;-50
2023/02/06 06:28:13;;;;;;;8.35;2.08;;;;;;;-0.81;71.78;102784.31;4966540;28;20054;-50
2023/02/06 06:30:40;;;;;;;7.75;3.35;;;;;;;-0.83;72.14;102791.81;4955713;28;20046;-50
2023/02/06 06:33:07;;;;;;;10.48;2.35;;;;;;;-0.85;71.91;102803.50;4970931;28;20566;-51
2023/02/06 06:35:33;;;;;;;6.90;3.13;;;;;;;-0.89;71.74;102803.97;4968673;28;20098;-48
2023/02/06 06:38:00;;;;;;;4.80;2.20;;;;;;;-0.92;72.08;102809.69;4965100;28;20450;-49
2023/02/06 06:40:27;;;;;;;4.95;3.17;;;;;;;-0.94;72.31;102801.03;4964178;28;20054;-48
2023/02/06 06:42:53;;;;;;;4.65;2.65;;;;;;;-0.95;72.60;102803.47;4970873;28;20094;-51
2023/02/06 06:45:20;;;;;;;11.23;3.38;;;;;;;-0.95;72.57;102798.38;4974607;28;20038;-53
2023/02/06 06:47:47;;;;;;;9.23;3.25;;;;;;;-0.96;72.43;102805.09;4972642;28;20068;-50
2023/02/06 06:50:13;;;;;;;15.65;3.05;;;;;;;-0.97;72.33;102802.41;4965771;28;20046;-51
2023/02/06 06:52:40;;;;;;;12.85;2.95;;;;;;;-0.97;72.48;102805.88;4964743;28;20051;-52
2023/02/06 06:55:07;;;;;;;6.63;2.90;;;;;;;-0.96;72.45;102806.75;4966740;28;20098;-50
2023/02/06 06:57:33;;;;;;;10.77;3.00;;;;;;;-0.94;72.69;102820.50;4964783;28;20623;-49
2023/02/06 07:00:00;;;;;;;11.50;2.58;;;;;;;-1.01;72.43;102826.72;4973870;28;20758;-47
2023/02/06 07:02:27;;;;;;;12.05;3.75;;;;;;;-1.11;72.11;102809.72;4962912;28;20078;-50
2023/02/06 07:04:54;;;;;;;6.50;2.13;;;;;;;-1.19;72.35;102808.13;4971726;28;20168;-50
2023/02/06 07:07:21;;;;;;;10.43;3.63;;;;;;;-1.28;71.66;102800.56;4971801;28;20051;-51
2023/02/06 07:09:47;;;;;;;7.72;3.42;;;;;;;-1.32;71.96;102796.84;4967291;28;20053;-51
2023/02/06 07:12:14;;;;;;;6.20;4.05;;;;;;;-1.35;72.17;102795.69;4971649;28;20066;-52
2023/02/06 07:14:41;;;;;;;12.70;4.07;;;;;;;-1.37;72.21;102803.16;4968220;28;20105;-52
2023/02/06 07:17:07;;;;;;;14.77;3.55;;;;;;;-1.37;71.97;102812.44;4962984;28;20059;-47
2023/02/06 07:19:34;;;;;;;8.88;3.67;;;;;;;-1.37;71.83;102808.25;4959673;28;20058;-52
2023/02/06 07:22:01;;;;;;;11.57;3.72;;;;;;;-1.41;72.00;102806.19;4963445;28;20046;-51
2023/02/06 07:24:27;;;;;;;5.47;2.72;;;;;;;-1.43;72.13;102805.16;4973063;28;20096;-50
2023/02/06 07:26:56;;;;;;;9.85;2.55;;;;;;;-1.50;72.06;102815.50;4969258;28;20559;-51
2023/02/06 07:29:23;;;;;;;13.35;4.40;;;;;;;-1.52;72.15;102817.03;4958922;28;20057;-53
2023/02/06 07:31:50;;;;;;;11.73;4.25;;;;;;;-1.57;71.99;102814.97;4969524;28;20088;-51
2023/02/06 07:34:16;;;;;;;7.70;3.55;;;;;;;-1.58;72.59;102814.81;4969120;28;20093;-50
2023/02/06 07:36:43;;;;;;;12.75;3.63;;;;;;;-1.59;72.36;102805.41;4972000;28;20615;-48
2023/02/06 07:39:10;;;;;;;13.85;4.05;;;;;;;-1.60;72.28;102793.44;4968230;28;21742;-51
2023/02/06 07:41:36;;;;;;;7.93;3.92;;;;;;;-1.60;71.96;102791.78;4962576;28;20101;-52
2023/02/06 07:44:03;;;;;;;7.68;3.33;;;;;;;-1.58;72.50;102782.66;4973893;28;20061;-50
2023/02/06 07:46:31;;;;;;;11.20;2.78;;;;;;;-1.56;72.55;102782.78;4978484;28;20466;-51
2023/02/06 07:48:58;;;;;;;17.58;4.22;;;;;;;-1.53;71.95;102787.28;4954241;28;20066;-48
2023/02/06 07:51:24;;;;;;;11.82;4.40;;;;;;;-1.48;72.02;102786.03;4959014;28;20129;-51
2023/02/06 07:53:51;;;;;;;10.95;3.80;;;;;;;-1.47;72.06;102780.19;4964439;28;20047;-51
2023/02/06 07:56:19;;;;;;;7.95;3.92;;;;;;;-1.44;72.47;102785.56;4964570;28;20487;-49
2023/02/06 07:58:51;;;;;;;14.15;3.63;;;;;;;-1.39;72.20;102784.31;4961964;28;20403;-51
2023/02/06 08:01:19;;;;;;;12.20;4.63;;;;;;;-1.35;72.54;102796.56;4958525;28;20139;-51
2023/02/06 08:03:54;;;;;;;10.05;5.40;;;;;;;-1.28;72.70;102792.03;4961866;28;20046;-50
2023/02/06 08:06:23;;;;;;;13.10;4.78;;;;;;;-1.23;72.41;102790.78;4965298;28;20047;-48
2023/02/06 08:08:50;;;;;;;21.38;4.78;;;;;;;-1.14;72.38;102781.47;4961346;28;20057;-48
2023/02/06 08:11:18;;;;;;;17.15;4.15;;;;;;;-0.94;72.43;102775.56;4966219;28;20104;-49
2023/02/06 08:13:46;;;;;;;12.60;5.18;;;;;;;-0.48;72.86;102782.03;4963257;28;20384;-49
2023/02/06 08:16:17;;;;;;;10.27;5.32;;;;;;;0.07;73.17;102785.84;4956234;28;20059;-50
2023/02/06 08:18:45;;;;;;;17.58;6.28;;;;;;;0.72;72.51;102785.25;4957899;28;20498;-51
2023/02/06 08:21:15;;;;;;;14.82;6.60;;;;;;;1.38;72.95;102775.09;4961468;28;20059;-51
2023/02/06 08:23:42;;;;;;;13.88;5.43;;;;;;;1.89;72.69;102776.50;4962845;28;20766;-50
2023/02/06 08:28:48;;;;;;;16.80;5.35;;;;;;;3.03;69.80;102776.28;5044708;28;20710;-50
2023/02/06 08:31:22;;;;;;;16.55;6.18;;;;;;;3.84;69.40;102772.59;5005874;28;20049;-52
2023/02/06 08:33:49;;;;;;;14.27;5.38;;;;;;;4.74;68.53;102781.91;4988781;28;20057;-51
2023/02/06 08:36:18;;;;;;;14.23;6.20;;;;;;;5.61;68.00;102784.81;4997885;28;20056;-52
2023/02/06 08:38:45;;;;;;;15.35;5.43;;;;;;;6.46;66.69;102774.38;4991871;28;20050;-51
2023/02/06 08:43:54;;;;;;;15.70;7.20;;;;;;;8.07;64.27;102789.16;5018247;27;20418;-50
2023/02/06 08:46:23;;;;;;;15.10;4.88;;;;;;;8.74;64.06;102790.81;5001770;28;20054;-50
2023/02/06 08:48:55;;;;;;;11.77;4.78;;;;;;;9.39;63.20;102785.22;5002411;28;20058;-53
2023/02/06 08:51:26;;;;;;;15.07;6.28;;;;;;;9.93;62.44;102780.69;5011020;28;20091;-51
2023/02/06 08:53:58;;;;;;;11.98;5.50;;;;;;;10.32;61.05;102792.72;5007703;28;20046;-51
2023/02/06 08:56:26;;;;;;;11.57;5.70;;;;;;;10.53;61.45;102795.38;5002864;28;20046;-50
2023/02/06 08:58:53;;;;;;;16.10;6.80;;;;;;;10.83;60.84;102777.53;5006564;28;20050;-52
2023/02/06 09:01:20;;;;;;;18.13;6.20;;;;;;;11.39;59.57;102772.78;5001505;28;20049;-51
2023/02/06 09:03:47;;;;;;;12.95;3.90;;;;;;;11.99;60.00;102768.00;5004518;28;20465;-51
2023/02/06 09:06:14;;;;;;;14.95;6.15;;;;;;;12.62;58.63;102785.69;4997150;28;20081;-49
2023/02/06 09:08:41;;;;;;;16.58;5.47;;;;;;;13.26;57.19;102785.97;4996492;28;20065;-53
2023/02/06 09:11:11;;;;;;;12.52;6.10;;;;;;;13.87;55.88;102774.69;5001034;28;20545;-55
2023/02/06 09:13:38;;;;;;;10.93;4.93;;;;;;;14.35;54.51;102781.16;4994680;28;20660;-54
2023/02/06 09:16:05;;;;;;;15.60;5.95;;;;;;;14.78;53.60;102770.06;4993638;28;20709;-54
2023/02/06 09:18:33;;;;;;;10.45;5.57;;;;;;;15.28;53.19;102790.31;5001891;28;20069;-55
2023/02/06 09:23:45;;;;;;;15.30;4.88;;;;;;;16.43;49.97;102778.56;5034297;28;20393;-51
2023/02/06 09:26:15;;;;;;;11.40;3.80;;;;;;;16.95;49.56;102767.13;4985212;28;20066;-54
2023/02/06 09:28:41;;;;;;;13.52;4.13;;;;;;;17.37;48.03;102765.94;4991460;28;20151;-51
2023/02/06 09:31:09;;;;;;;10.93;4.00;;;;;;;17.78;47.65;102751.56;5000033;28;20108;-51
2023/02/06 09:33:37;;;;;;;10.55;5.80;;;;;;;18.07;46.26;102756.22;4998770;28;20854;-54
2023/02/06 09:38:45;;;;;;;13.43;5.13;;;;;;;18.28;44.61;102744.19;5051384;28;20381;-51
2023/02/06 09:41:20;;;;;;;14.55;3.92;;;;;;;18.48;43.89;102732.09;5007221;28;20042;-52
2023/02/06 09:43:53;;;;;;;11.75;4.68;;;;;;;18.71;44.09;102731.34;5000834;28;20112;-53
2023/02/06 09:46:30;;;;;;;15.15;4.90;;;;;;;19.14;44.39;102741.25;5005882;28;20709;-53
2023/02/06 09:49:00;;;;;;;14.07;4.38;;;;;;;19.64;43.56;102741.41;5005332;28;20050;-53
2023/02/06 09:51:55;;;;;;;14.32;4.63;;;;;;;20.13;42.65;102745.00;5001891;28;20096;-54
2023/02/06 09:57:12;;;;;;;22.10;8.88;;;;;;;21.27;41.95;102734.22;5055106;28;20403;-54
2023/02/06 09:59:45;;;;;;;15.68;8.77;;;;;;;21.66;41.06;102739.28;5058695;28;20052;-55
2023/02/06 10:08:27;;;;;;;10.80;4.30;;;;;;;22.70;39.17;102734.91;5043008;28;20405;-54
2023/02/06 10:10:57;;;;;;;11.60;3.75;;;;;;;22.94;38.93;102745.22;5019762;28;20054;-54
2023/02/06 10:13:33;;;;;;;11.02;4.05;;;;;;;23.07;38.51;102749.44;5051572;28;20049;-55
2023/02/06 10:16:04;;;;;;;;;;;;;;;23.12;38.75;102746.75;5018986;28;20116;-55
2023/02/06 10:18:37;;;;;;;8.75;4.15;;;;;;;23.03;37.89;102746.88;5021152;28;19939;-55
2023/02/06 10:21:27;;;;;;;9.73;3.25;;;;;;;23.09;37.91;102741.50;5012547;28;20100;-54
2023/02/06 10:26:36;;;;;;;8.50;2.88;;;;;;;23.19;36.52;102736.97;5089007;27;20409;-52
2023/02/06 10:29:04;;;;;;;12.10;3.63;;;;;;;23.14;36.61;102744.09;5064204;28;20048;-51
2023/02/06 10:45:14;;;;;;;8.25;3.30;;;;;;;23.45;35.28;102749.00;5049137;28;20398;-55
2023/02/06 10:47:54;;;;;;;10.80;3.40;;;;;;;23.43;34.63;102740.19;5014962;28;20049;-55
2023/02/06 10:53:05;;;;;;;11.38;5.43;;;;;;;22.77;34.82;102750.69;5118873;27;20387;-55
2023/02/06 10:55:45;;;;;;;10.88;5.68;;;;;;;21.81;33.36;102748.00;5065813;28;20079;-54
2023/02/06 10:58:20;;;;;;;13.88;4.95;;;;;;;21.02;34.97;102742.25;5041010;28;20072;-55
2023/02/06 11:00:49;;;;;;;11.05;4.50;;;;;;;20.09;35.96;102742.38;5040174;28;20048;-55
2023/02/06 11:03:23;;;;;;;11.57;3.45;;;;;;;19.07;37.31;102728.06;5041138;28;20053;-54
2023/02/06 11:05:51;;;;;;;14.95;4.78;;;;;;;18.27;38.28;102729.31;5037537;28;20052;-54
2023/02/06 11:08:24;;;;;;;11.60;4.43;;;;;;;17.58;39.08;102726.91;5038219;28;20045;-52
2023/02/06 11:10:51;;;;;;;12.40;4.82;;;;;;;16.94;39.97;102726.13;5039677;28;20110;-53
2023/02/06 11:13:25;;;;;;;11.15;3.70;;;;;;;16.31;40.95;102724.31;5037082;28;20049;-53
2023/02/06 11:18:35;;;;;;;8.35;2.17;;;;;;;15.00;41.90;102726.19;5037035;27;20419;-53
2023/02/06 11:21:02;;;;;;;13.45;2.78;;;;;;;14.61;43.34;102715.75;4994376;28;20525;-52
2023/02/06 11:23:30;;;;;;;11.50;2.78;;;;;;;14.31;43.61;102713.25;4998599;28;20046;-53
2023/02/06 11:26:19;;;;;;;9.30;2.55;;;;;;;13.91;44.58;102707.94;4999311;28;20050;-52
2023/02/06 11:31:42;;;;;;;10.50;2.15;;;;;;;13.14;44.66;102712.75;5060345;27;20412;-52
2023/02/06 11:34:32;;;;;;;14.57;2.35;;;;;;;12.81;45.60;102707.47;5051724;28;20051;-52
2023/02/06 11:37:03;;;;;;;10.90;3.08;;;;;;;12.72;46.43;102713.25;5055534;28;20606;-51
2023/02/06 11:39:34;;;;;;;10.60;2.10;;;;;;;12.55;45.94;102707.53;5056760;28;20079;-54
2023/02/06 11:42:05;;;;;;;15.25;2.50;;;;;;;12.42;47.13;102710.56;5057949;28;20051;-53
2023/02/06 11:44:38;;;;;;;10.73;2.17;;;;;;;12.29;46.29;102706.69;5053003;28;20080;-54
2023/02/06 11:53:06;;;;;;;7.20;2.63;;;;;;;11.62;48.10;102692.28;5049669;28;20412;-49
2023/02/06 11:55:33;;;;;;;11.13;2.97;;;;;;;11.48;48.05;102686.59;4996258;28;20718;-54
2023/02/06 12:00:53;;;;;;;15.73;4.18;;;;;;;11.20;49.02;102683.00;5034295;27;20413;-53
2023/02/06 12:03:45;;;;;;;11.95;3.42;;;;;;;10.97;49.02;102677.81;5002781;28;20524;-52
2023/02/06 12:06:15;;;;;;;8.80;2.85;;;;;;;10.78;49.03;102661.56;4983437;28;20052;-50
2023/02/06 12:09:04;;;;;;;14.55;3.45;;;;;;;10.52;50.00;102657.97;5029422;28;20050;-53
2023/02/06 12:16:52;;;;;;;14.93;3.17;;;;;;;10.52;50.81;102643.31;4998458;27;20415;-52
2023/02/06 12:19:25;;;;;;;14.93;3.42;;;;;;;10.39;50.81;102638.41;4980642;28;20054;-50
2023/02/06 12:22:01;;;;;;;13.45;3.08;;;;;;;10.36;50.51;102635.69;4985182;28;20038;-52
2023/02/06 12:27:20;;;;;;;14.35;3.10;;;;;;;10.23;51.41;102621.41;5027544;28;20752;-49
2023/02/06 12:30:27;;;;;;;9.55;2.67;;;;;;;10.12;51.36;102610.59;4997970;28;20062;-51
2023/02/06 12:33:03;;;;;;;14.18;4.38;;;;;;;9.93;52.01;102609.81;5011622;28;20065;-53
2023/02/06 12:38:26;;;;;;;13.93;4.63;;;;;;;9.77;51.95;102614.38;5056408;28;20388;-53
2023/02/06 12:41:32;;;;;;;15.02;4.60;;;;;;;9.70;52.78;102612.38;5053472;28;20073;-53
2023/02/06 12:44:38;;;;;;;18.27;4.80;;;;;;;9.63;52.44;102599.97;5049125;28;20575;-52
2023/02/06 12:55:42;;;;;;;12.88;2.92;;;;;;;9.46;52.69;102602.72;5023347;27;20396;-53
2023/02/06 12:58:48;;;;;;;12.35;3.33;;;;;;;9.39;53.19;102605.84;4997437;28;20046;-50
2023/02/06 13:04:17;;;;;;;16.42;3.58;;;;;;;9.30;53.84;102597.69;5068547;27;20388;-50
2023/02/06 13:06:52;;;;;;;9.25;3.45;;;;;;;9.31;53.10;102596.88;5051928;28;20575;-50
2023/02/06 13:09:25;;;;;;;5.15;2.03;;;;;;;9.30;53.09;102590.84;5051782;28;20512;-52
2023/02/06 13:12:04;;;;;;;7.32;2.03;;;;;;;9.25;53.51;102588.03;5041463;28;20049;-50
2023/02/06 13:14:33;;;;;;;5.80;1.90;;;;;;;9.18;53.05;102585.13;5037644;28;20077;-53
2023/02/06 13:17:15;;;;;;;9.13;3.17;;;;;;;9.08;53.57;102592.47;5033977;28;20485;-52
2023/02/06 13:24:56;;;;;;;9.02;2.08;;;;;;;8.94;53.99;102585.78;5020620;27;20415;-53
2023/02/06 13:27:24;;;;;;;10.32;3.65;;;;;;;8.90;53.74;102579.59;5015718;28;20097;-53
2023/02/06 13:29:52;;;;;;;7.95;3.42;;;;;;;8.86;54.13;102572.53;4976815;28;20051;-52
2023/02/06 13:32:29;;;;;;;9.05;2.05;;;;;;;8.78;54.08;102564.41;4983734;28;20050;-53